Main page
METAR-TAF:

METAR-TAF

Airports :

Isle of Man Airport

Isle of Man,

latitude: 54-05N, longitude: 004-38W, elevation: 17 m

Current weather observation

The report was made 30 minutes ago, at 20:50 UTC
Wind 2 kt from variable directions
Temperature 11°C
Humidity 76%
Pressure 1018 hPa
Visibility 10 km or more
no clouds below 1500 m and no cumulonimbus

METAR: EGNS 202050Z VRB02KT CAVOK 11/07 Q1018

Time: 22:20 (21:20 UTC)

Forecast

The report was made 4 hours and 20 minutes ago, at 17:00 UTC
Forecast valid from 20 at 18 UTC to 20 at 21 UTC
Wind 8 kt from the South/Southwest
Visibility 10 km or more
no clouds below 1500 m and no cumulonimbus

TAF: EGNS 201700Z 2018/2021 20008KT CAVOK

Weather observations and forecasts of more than 4000 airports (METAR and TAF reports).

The available stations are represented by yellow and red dots on the map.

Hover mouse over dot to see the name of the station.

Then click to see weather observations and forecasts.

To change the map : click on the green buttons with a black cross to zoom in, on the green button with a dash to zoom out, or on the green arrows for adjacent maps.


METAR-TAF: